createdAt,value
2022-09-14T00:01:08.165Z,3.28
2022-09-14T00:02:11.641Z,3.00
2022-09-14T00:03:14.145Z,3.08
2022-09-14T00:04:17.942Z,2.88
2022-09-14T00:05:19.639Z,3.13
2022-09-14T00:06:21.824Z,2.97
2022-09-14T00:07:23.505Z,3.10
2022-09-14T00:08:25.176Z,2.88
2022-09-14T00:09:26.847Z,3.20
2022-09-14T00:10:28.854Z,3.08
2022-09-14T00:11:33.513Z,3.17
2022-09-14T00:12:35.148Z,2.97
2022-09-14T00:13:36.892Z,3.00
2022-09-14T00:14:39.044Z,2.80
2022-09-14T00:15:42.518Z,2.60
2022-09-14T00:16:44.667Z,2.92
2022-09-14T00:17:46.371Z,2.75
2022-09-14T00:19:06.359Z,2.97
2022-09-14T00:20:08.850Z,2.83
2022-09-14T00:21:12.420Z,2.60
2022-09-14T00:22:14.085Z,2.83
2022-09-14T00:23:15.741Z,2.90
2022-09-14T00:24:17.772Z,2.67
2022-09-14T00:25:19.420Z,2.80
2022-09-14T00:26:23.167Z,2.65
2022-09-14T00:27:24.860Z,2.78
2022-09-14T00:28:26.494Z,2.80
2022-09-14T00:29:28.689Z,3.08
2022-09-14T00:30:30.455Z,3.10
2022-09-14T00:31:34.899Z,3.00
2022-09-14T00:32:36.754Z,2.85
2022-09-14T00:33:38.622Z,3.20
2022-09-14T00:34:40.287Z,3.03
2022-09-14T00:35:42.440Z,2.92
2022-09-14T00:36:47.545Z,3.03
2022-09-14T00:37:51.166Z,3.15
2022-09-14T00:38:56.774Z,3.15
2022-09-14T00:39:58.545Z,3.00
2022-09-14T00:41:01.013Z,2.80
2022-09-14T00:42:05.540Z,3.20
2022-09-14T00:43:15.155Z,2.53
2022-09-14T00:44:16.750Z,3.05
2022-09-14T00:45:21.829Z,2.80
2022-09-14T00:46:25.387Z,3.40
2022-09-14T00:47:29.512Z,3.05
2022-09-14T00:48:31.243Z,2.70
2022-09-14T00:49:41.316Z,3.25
2022-09-14T00:50:43.330Z,3.17
2022-09-14T00:51:55.980Z,2.80
2022-09-14T00:52:57.640Z,3.25
2022-09-14T00:54:02.456Z,3.00
2022-09-14T00:55:09.345Z,3.33
2022-09-14T00:56:11.153Z,3.20
2022-09-14T00:57:14.432Z,2.63
2022-09-14T00:58:16.157Z,2.90
2022-09-14T00:59:23.207Z,3.00
2022-09-14T01:00:28.086Z,3.60
2022-09-14T01:01:29.795Z,3.30
2022-09-14T01:02:31.745Z,3.28
2022-09-14T01:03:33.600Z,3.17
2022-09-14T01:04:36.732Z,3.13
2022-09-14T01:05:54.027Z,3.40
2022-09-14T01:07:16.240Z,3.65
2022-09-14T01:08:23.906Z,3.72
2022-09-14T01:09:38.300Z,3.53
2022-09-14T01:11:04.484Z,3.67
2022-09-14T01:12:15.790Z,3.28
2022-09-14T01:13:29.039Z,3.92
2022-09-14T01:14:44.944Z,4.07
2022-09-14T01:16:43.944Z,3.72
2022-09-14T01:18:04.603Z,3.70
2022-09-14T01:19:45.651Z,3.65
2022-09-14T01:21:20.676Z,4.07
2022-09-14T01:22:28.248Z,3.92
2022-09-14T01:23:36.416Z,3.83
2022-09-14T01:24:48.120Z,4.45
2022-09-14T01:26:01.686Z,3.95
2022-09-14T01:27:06.319Z,3.85
2022-09-14T01:28:23.940Z,3.88
2022-09-14T01:29:40.755Z,4.03
2022-09-14T01:30:43.715Z,4.40
2022-09-14T01:32:04.094Z,3.97
2022-09-14T01:33:11.752Z,3.67
2022-09-14T01:34:31.843Z,3.83
2022-09-14T01:35:42.764Z,3.85
2022-09-14T01:36:49.226Z,3.67
2022-09-14T01:38:03.314Z,3.85
2022-09-14T01:39:07.047Z,3.58
2022-09-14T01:40:33.491Z,3.38
2022-09-14T01:41:36.455Z,3.28
2022-09-14T01:42:42.987Z,3.67
2022-09-14T01:43:50.049Z,3.17
2022-09-14T01:44:56.738Z,3.15
2022-09-14T01:46:06.658Z,3.00
2022-09-14T01:47:22.250Z,3.00
2022-09-14T01:48:32.003Z,3.20
2022-09-14T01:49:41.533Z,3.03
2022-09-14T01:50:56.920Z,3.08
2022-09-14T01:52:04.082Z,2.90
2022-09-14T01:53:17.868Z,3.20
2022-09-14T01:54:30.127Z,2.90
2022-09-14T01:55:54.386Z,3.10
2022-09-14T01:57:00.261Z,2.80
2022-09-14T01:58:09.454Z,3.00
2022-09-14T01:59:16.793Z,2.85
2022-09-14T02:00:21.241Z,3.05
2022-09-14T02:01:37.956Z,2.40
2022-09-14T02:02:44.906Z,3.05
2022-09-14T02:03:55.773Z,2.78
2022-09-14T02:05:21.948Z,2.83
2022-09-14T02:06:36.108Z,2.67
2022-09-14T02:07:38.864Z,2.47
2022-09-14T02:08:41.313Z,3.00
2022-09-14T02:09:43.802Z,3.05
2022-09-14T02:10:45.606Z,2.85
2022-09-14T02:11:47.570Z,2.80
2022-09-14T02:12:49.292Z,2.63
2022-09-14T02:13:51.091Z,2.75
2022-09-14T02:14:54.382Z,3.00
2022-09-14T02:15:56.342Z,2.90
2022-09-14T02:16:58.590Z,3.35
2022-09-14T02:18:00.263Z,3.20
2022-09-14T02:19:02.591Z,3.03
2022-09-14T02:20:08.342Z,2.80
2022-09-14T02:21:18.362Z,2.67
2022-09-14T02:22:20.113Z,3.00
2022-09-14T02:23:22.381Z,3.13
2022-09-14T02:24:24.111Z,3.13
2022-09-14T02:25:25.816Z,2.75
2022-09-14T02:26:28.415Z,3.00
2022-09-14T02:27:30.059Z,3.08
2022-09-14T02:28:31.791Z,2.70
2022-09-14T02:29:34.031Z,3.25
2022-09-14T02:30:50.006Z,2.90
2022-09-14T02:32:07.009Z,2.72
2022-09-14T02:33:21.157Z,2.70
2022-09-14T02:34:44.656Z,2.65
2022-09-14T02:35:52.200Z,2.83
2022-09-14T02:37:08.846Z,2.95
2022-09-14T02:38:16.215Z,2.80
2022-09-14T02:39:31.378Z,2.92
2022-09-14T02:40:35.832Z,2.60
2022-09-14T02:41:48.959Z,2.90
2022-09-14T02:42:50.973Z,2.83
2022-09-14T02:44:04.858Z,2.58
2022-09-14T02:45:55.813Z,2.72
2022-09-14T02:47:21.318Z,2.53
2022-09-14T02:48:28.608Z,2.38
2022-09-14T02:49:44.675Z,2.70
2022-09-14T02:50:49.940Z,2.70
2022-09-14T02:52:23.198Z,3.08
2022-09-14T02:53:33.869Z,3.15
2022-09-14T02:54:50.642Z,2.83
2022-09-14T02:55:57.504Z,2.90
2022-09-14T02:57:03.907Z,2.47
2022-09-14T02:58:11.525Z,2.90
2022-09-14T02:59:13.216Z,3.13
2022-09-14T03:00:15.090Z,2.90
2022-09-14T03:01:19.448Z,2.90
2022-09-14T03:02:21.901Z,3.00
2022-09-14T03:03:23.604Z,2.80
2022-09-14T03:04:25.384Z,2.78
2022-09-14T03:05:27.649Z,2.80
2022-09-14T03:06:29.350Z,2.70
2022-09-14T03:07:31.031Z,2.55
2022-09-14T03:08:33.281Z,2.50
2022-09-14T03:09:35.060Z,2.88
2022-09-14T03:10:37.724Z,2.78
2022-09-14T03:11:39.377Z,2.55
2022-09-14T03:12:41.259Z,2.55
2022-09-14T03:13:42.930Z,3.00
2022-09-14T03:14:44.621Z,2.67
2022-09-14T03:15:46.703Z,2.72
2022-09-14T03:16:48.438Z,2.85
2022-09-14T03:17:51.165Z,3.00
2022-09-14T03:18:52.833Z,2.70
2022-09-14T03:19:54.885Z,2.92
2022-09-14T03:21:04.277Z,2.88
2022-09-14T03:22:06.095Z,2.83
2022-09-14T03:23:09.245Z,2.78
2022-09-14T03:24:11.225Z,2.78
2022-09-14T03:25:14.224Z,2.83
2022-09-14T03:26:19.158Z,3.25
2022-09-14T03:27:20.785Z,3.30
2022-09-14T03:28:22.454Z,3.08
2022-09-14T03:29:24.138Z,3.20
2022-09-14T03:30:27.929Z,3.05
2022-09-14T03:31:29.687Z,3.00
2022-09-14T03:32:32.470Z,3.20
2022-09-14T03:33:34.585Z,2.78
2022-09-14T03:34:36.265Z,2.78
2022-09-14T03:35:37.930Z,2.90
2022-09-14T03:36:39.635Z,3.20
2022-09-14T03:37:42.703Z,2.97
2022-09-14T03:38:52.563Z,2.67
2022-09-14T03:39:54.399Z,2.60
2022-09-14T03:40:59.888Z,2.53
2022-09-14T03:42:01.561Z,2.42
2022-09-14T03:43:03.244Z,2.75
2022-09-14T03:44:04.958Z,2.83
2022-09-14T03:45:07.301Z,2.40
2022-09-14T03:46:15.101Z,2.63
2022-09-14T03:47:16.828Z,2.58
2022-09-14T03:48:18.602Z,2.50
2022-09-14T03:49:20.259Z,2.30
2022-09-14T03:50:21.918Z,2.83
2022-09-14T03:51:24.146Z,2.53
2022-09-14T03:52:25.789Z,2.83
2022-09-14T03:53:27.857Z,2.63
2022-09-14T03:54:29.656Z,2.90
2022-09-14T03:55:31.313Z,3.20
2022-09-14T03:56:33.048Z,3.33
2022-09-14T03:57:34.918Z,3.20
2022-09-14T03:58:37.311Z,3.05
2022-09-14T03:59:43.469Z,2.85
2022-09-14T04:00:45.857Z,3.13
2022-09-14T04:01:47.994Z,3.13
2022-09-14T04:02:50.284Z,3.15
2022-09-14T04:03:52.383Z,3.55
2022-09-14T04:04:54.041Z,3.20
2022-09-14T04:05:56.669Z,3.25
2022-09-14T04:06:58.325Z,3.35
2022-09-14T04:08:00.031Z,3.47
2022-09-14T04:09:01.834Z,3.20
2022-09-14T04:10:05.756Z,3.20
2022-09-14T04:11:10.065Z,3.03
2022-09-14T04:12:11.824Z,3.22
2022-09-14T04:13:13.494Z,3.50
2022-09-14T04:14:15.734Z,3.45
2022-09-14T04:15:17.530Z,3.70
2022-09-14T04:16:21.196Z,2.97
2022-09-14T04:17:25.362Z,3.72
2022-09-14T04:18:27.268Z,3.80
2022-09-14T04:19:28.915Z,3.75
2022-09-14T04:20:30.602Z,3.80
2022-09-14T04:21:32.889Z,3.60
2022-09-14T04:22:34.785Z,3.47
2022-09-14T04:23:56.635Z,4.38
2022-09-14T04:24:58.527Z,4.20
2022-09-14T04:26:00.596Z,4.15
2022-09-14T04:27:02.261Z,4.07
2022-09-14T04:28:19.654Z,3.92
2022-09-14T04:29:22.440Z,3.45
2022-09-14T04:30:24.248Z,3.40
2022-09-14T04:31:26.388Z,3.97
2022-09-14T04:32:33.564Z,3.60
2022-09-14T04:33:37.068Z,3.97
2022-09-14T04:34:38.683Z,4.13
2022-09-14T04:35:40.372Z,4.03
2022-09-14T04:36:42.498Z,3.90
2022-09-14T04:37:44.164Z,3.58
2022-09-14T04:38:46.769Z,3.58
2022-09-14T04:39:48.475Z,3.70
2022-09-14T04:40:50.271Z,3.42
2022-09-14T04:41:52.149Z,4.03
2022-09-14T04:42:53.802Z,3.45
2022-09-14T04:43:56.785Z,3.58
2022-09-14T04:44:58.452Z,3.13
2022-09-14T04:46:08.852Z,3.30
2022-09-14T04:47:10.576Z,3.20
2022-09-14T04:48:12.357Z,3.33
2022-09-14T04:49:18.971Z,3.20
2022-09-14T04:50:20.741Z,3.53
2022-09-14T04:51:25.409Z,2.95
2022-09-14T04:52:27.128Z,3.30
2022-09-14T04:53:28.784Z,3.33
2022-09-14T04:54:30.465Z,3.20
2022-09-14T04:55:32.131Z,3.17
2022-09-14T04:56:37.068Z,3.03
2022-09-14T04:57:38.828Z,3.08
2022-09-14T04:58:51.608Z,3.00
2022-09-14T04:59:53.604Z,3.42
2022-09-14T05:01:06.747Z,3.40
2022-09-14T05:02:08.510Z,2.90
2022-09-14T05:03:10.328Z,3.28
2022-09-14T05:04:12.524Z,3.22
2022-09-14T05:05:14.474Z,3.10
2022-09-14T05:06:22.118Z,2.80
2022-09-14T05:07:23.795Z,3.08
2022-09-14T05:08:25.445Z,2.92
2022-09-14T05:09:27.084Z,2.70
2022-09-14T05:10:28.876Z,2.67
2022-09-14T05:11:33.695Z,2.72
2022-09-14T05:12:35.403Z,2.90
2022-09-14T05:13:37.091Z,3.60
2022-09-14T05:14:38.760Z,3.13
2022-09-14T05:15:40.465Z,3.20
2022-09-14T05:16:43.679Z,3.08
2022-09-14T05:17:45.351Z,3.40
2022-09-14T05:18:47.714Z,3.00
2022-09-14T05:19:49.358Z,2.92
2022-09-14T05:20:51.013Z,2.90
2022-09-14T05:21:52.714Z,2.85
2022-09-14T05:22:54.356Z,2.78
2022-09-14T05:23:58.724Z,3.00
2022-09-14T05:25:00.395Z,2.83
2022-09-14T05:26:02.111Z,2.75
2022-09-14T05:27:03.975Z,2.78
2022-09-14T05:28:05.631Z,2.95
2022-09-14T05:29:07.390Z,2.92
2022-09-14T05:30:09.657Z,3.00
2022-09-14T05:31:13.304Z,2.60
2022-09-14T05:32:15.046Z,2.42
2022-09-14T05:33:16.748Z,2.45
2022-09-14T05:34:18.510Z,2.60
2022-09-14T05:35:20.254Z,2.55
2022-09-14T05:36:22.346Z,2.60
2022-09-14T05:37:24.066Z,2.88
2022-09-14T05:38:25.748Z,2.35
2022-09-14T05:39:27.403Z,2.30
2022-09-14T05:40:29.159Z,2.70
2022-09-14T05:41:30.913Z,2.88
2022-09-14T05:42:32.556Z,2.58
2022-09-14T05:43:34.409Z,2.40
2022-09-14T05:44:36.044Z,2.55
2022-09-14T05:45:37.680Z,2.30
2022-09-14T05:46:40.461Z,2.47
2022-09-14T05:47:42.223Z,2.67
2022-09-14T05:48:44.254Z,2.42
2022-09-14T05:49:46.013Z,2.53
2022-09-14T05:50:48.202Z,2.33
2022-09-14T05:51:49.831Z,2.30
2022-09-14T05:52:51.682Z,2.35
2022-09-14T05:53:56.018Z,2.55
2022-09-14T05:54:57.680Z,2.75
2022-09-14T05:56:05.015Z,2.40
2022-09-14T05:57:06.884Z,2.28
2022-09-14T05:58:08.645Z,2.55
2022-09-14T05:59:10.987Z,2.63
2022-09-14T06:00:13.290Z,2.40
2022-09-14T06:01:21.029Z,2.10
2022-09-14T06:02:22.824Z,2.60
2022-09-14T06:03:25.410Z,2.20
2022-09-14T06:04:27.211Z,2.00
2022-09-14T06:05:29.033Z,2.30
2022-09-14T06:06:32.754Z,2.22
2022-09-14T06:07:34.457Z,2.33
2022-09-14T06:08:36.739Z,2.40
2022-09-14T06:09:38.387Z,2.00
2022-09-14T06:10:40.750Z,2.00
2022-09-14T06:11:42.615Z,2.55
2022-09-14T06:12:44.393Z,2.30
2022-09-14T06:13:47.017Z,2.10
2022-09-14T06:14:48.691Z,2.20
2022-09-14T06:15:50.346Z,2.10
2022-09-14T06:16:52.003Z,2.70
2022-09-14T06:17:53.681Z,2.35
2022-09-14T06:18:57.001Z,1.98
2022-09-14T06:20:03.511Z,1.90
2022-09-14T06:21:07.325Z,2.30
2022-09-14T06:22:08.984Z,2.17
2022-09-14T06:23:10.725Z,2.20
2022-09-14T06:24:12.860Z,2.38
2022-09-14T06:25:14.568Z,2.28
2022-09-14T06:26:16.773Z,2.28
2022-09-14T06:27:18.461Z,2.22
2022-09-14T06:28:20.118Z,2.67
2022-09-14T06:29:21.814Z,2.38
2022-09-14T06:30:23.509Z,2.00
2022-09-14T06:31:25.683Z,2.50
2022-09-14T06:32:30.924Z,2.35
2022-09-14T06:33:32.609Z,2.10
2022-09-14T06:34:34.245Z,2.50
2022-09-14T06:35:35.922Z,2.13
2022-09-14T06:36:37.618Z,2.30
2022-09-14T06:37:39.373Z,2.20
2022-09-14T06:38:42.118Z,2.15
2022-09-14T06:39:43.792Z,2.42
2022-09-14T06:40:59.442Z,2.08
2022-09-14T06:42:01.151Z,2.28
2022-09-14T06:43:03.053Z,2.50
2022-09-14T06:44:04.779Z,2.22
2022-09-14T06:45:07.104Z,2.10
2022-09-14T06:46:32.399Z,2.17
2022-09-14T06:47:34.510Z,2.25
2022-09-14T06:48:39.365Z,2.30
2022-09-14T06:49:41.077Z,2.08
2022-09-14T06:50:42.737Z,2.20
2022-09-14T06:51:46.927Z,1.98
2022-09-14T06:52:48.645Z,2.20
2022-09-14T06:53:51.288Z,2.40
2022-09-14T06:54:52.938Z,2.08
2022-09-14T06:55:59.229Z,2.00
2022-09-14T06:57:00.886Z,2.00
2022-09-14T06:58:03.135Z,2.13
2022-09-14T06:59:06.500Z,2.33
2022-09-14T07:00:09.086Z,1.80
2022-09-14T07:01:13.056Z,2.30
2022-09-14T07:02:14.812Z,2.00
2022-09-14T07:03:16.587Z,2.13
2022-09-14T07:04:18.832Z,2.17
2022-09-14T07:05:22.412Z,2.17
2022-09-14T07:06:30.279Z,2.03
2022-09-14T07:07:31.989Z,2.50
2022-09-14T07:08:34.987Z,1.80
2022-09-14T07:09:37.797Z,2.00
2022-09-14T07:10:40.217Z,2.40
2022-09-14T07:11:42.919Z,1.83
2022-09-14T07:12:44.902Z,1.80
2022-09-14T07:13:48.729Z,2.20
2022-09-14T07:14:50.464Z,1.77
2022-09-14T07:15:52.205Z,2.30
2022-09-14T07:16:53.849Z,1.98
2022-09-14T07:17:55.803Z,1.65
2022-09-14T07:18:59.531Z,2.08
2022-09-14T07:20:01.692Z,1.88
2022-09-14T07:21:07.324Z,2.00
2022-09-14T07:22:08.979Z,2.00
2022-09-14T07:23:13.188Z,1.90
2022-09-14T07:24:17.929Z,2.00
2022-09-14T07:25:19.593Z,2.00
2022-09-14T07:26:32.433Z,1.80
2022-09-14T07:27:34.492Z,1.70
2022-09-14T07:28:37.419Z,1.83
2022-09-14T07:29:39.098Z,1.90
2022-09-14T07:30:41.683Z,1.77
2022-09-14T07:31:51.890Z,2.10
2022-09-14T07:32:54.328Z,1.77
2022-09-14T07:33:57.996Z,2.05
2022-09-14T07:34:59.649Z,1.95
2022-09-14T07:36:09.187Z,1.77
2022-09-14T07:37:10.870Z,1.80
2022-09-14T07:38:12.530Z,1.83
2022-09-14T07:39:17.434Z,1.80
2022-09-14T07:40:19.134Z,1.83
2022-09-14T07:41:23.544Z,1.80
2022-09-14T07:42:25.219Z,1.83
2022-09-14T07:43:28.560Z,1.70
2022-09-14T07:44:30.282Z,2.05
2022-09-14T07:45:32.283Z,1.92
2022-09-14T07:46:40.262Z,1.85
2022-09-14T07:47:41.952Z,1.92
2022-09-14T07:48:43.847Z,2.10
2022-09-14T07:49:45.665Z,2.00
2022-09-14T07:50:47.556Z,1.77
2022-09-14T07:51:49.325Z,1.98
2022-09-14T07:52:51.839Z,1.88
2022-09-14T07:53:54.065Z,2.55
2022-09-14T07:54:56.287Z,1.88
2022-09-14T07:56:02.215Z,1.88
2022-09-14T07:57:04.002Z,1.90
2022-09-14T07:58:05.937Z,2.17
2022-09-14T07:59:33.532Z,1.90
2022-09-14T08:00:29.464Z,1.70
2022-09-14T08:01:31.626Z,1.88
2022-09-14T08:02:34.776Z,1.92
2022-09-14T08:03:36.612Z,2.08
2022-09-14T08:04:41.049Z,2.00
2022-09-14T08:05:42.702Z,1.95
2022-09-14T08:06:44.504Z,1.95
2022-09-14T08:07:46.189Z,2.00
2022-09-14T08:08:49.919Z,1.88
2022-09-14T08:09:51.571Z,1.80
2022-09-14T08:10:53.313Z,1.95
2022-09-14T08:11:54.964Z,2.05
2022-09-14T08:12:56.717Z,1.88
2022-09-14T08:14:00.634Z,1.90
2022-09-14T08:15:02.289Z,2.20
2022-09-14T08:16:06.165Z,1.80
2022-09-14T08:17:08.134Z,1.80
2022-09-14T08:18:11.244Z,1.90
2022-09-14T08:19:17.295Z,1.90
2022-09-14T08:20:19.399Z,2.30
2022-09-14T08:21:21.359Z,1.70
2022-09-14T08:22:23.089Z,2.10
2022-09-14T08:23:25.529Z,2.13
2022-09-14T08:24:27.372Z,1.90
2022-09-14T08:25:29.181Z,1.80
2022-09-14T08:26:31.599Z,2.20
2022-09-14T08:27:33.302Z,1.85
2022-09-14T08:28:36.603Z,1.88
2022-09-14T08:29:39.725Z,2.00
2022-09-14T08:30:41.685Z,1.70
2022-09-14T08:31:45.815Z,2.00
2022-09-14T08:32:47.684Z,1.90
2022-09-14T08:33:51.843Z,1.80
2022-09-14T08:34:53.553Z,1.85
2022-09-14T08:35:57.901Z,1.52
2022-09-14T08:37:00.035Z,1.95
2022-09-14T08:38:01.699Z,1.83
2022-09-14T08:39:04.502Z,1.50
2022-09-14T08:40:06.661Z,1.90
2022-09-14T08:41:17.357Z,1.70
2022-09-14T08:43:26.126Z,1.80
2022-09-14T08:44:40.708Z,1.80
2022-09-14T08:45:43.878Z,1.90
2022-09-14T08:46:53.944Z,2.13
2022-09-14T08:47:58.009Z,1.85
2022-09-14T08:49:01.777Z,1.63
2022-09-14T08:50:17.385Z,1.92
2022-09-14T08:51:19.323Z,1.70
2022-09-14T08:52:34.246Z,2.00
2022-09-14T08:53:39.613Z,1.98
2022-09-14T08:54:41.357Z,1.65
2022-09-14T08:55:49.075Z,1.75
2022-09-14T08:57:01.789Z,2.05
2022-09-14T08:58:53.815Z,1.98
2022-09-14T09:00:13.482Z,2.10
2022-09-14T09:01:33.765Z,1.90
2022-09-14T09:03:09.720Z,1.77
2022-09-14T09:04:11.374Z,2.25
2022-09-14T09:05:34.857Z,2.20
2022-09-14T09:07:01.246Z,1.83
2022-09-14T09:08:21.764Z,1.80
2022-09-14T09:09:34.844Z,1.70
2022-09-14T09:10:40.237Z,1.98
2022-09-14T09:11:44.875Z,1.65
2022-09-14T09:12:52.774Z,1.70
2022-09-14T09:13:56.196Z,1.75
2022-09-14T09:15:01.369Z,1.77
2022-09-14T09:16:06.855Z,1.80
2022-09-14T09:17:46.274Z,1.55
2022-09-14T09:18:51.845Z,1.58
2022-09-14T09:20:08.641Z,1.60
2022-09-14T09:21:18.289Z,1.60
2022-09-14T09:22:23.493Z,1.50
2022-09-14T09:23:28.352Z,1.50
2022-09-14T09:24:37.539Z,1.40
2022-09-14T09:25:59.524Z,1.40
2022-09-14T09:27:01.345Z,1.23
2022-09-14T09:28:12.971Z,1.50
2022-09-14T09:29:14.777Z,1.52
2022-09-14T09:30:17.445Z,1.50
2022-09-14T09:31:26.645Z,1.60
2022-09-14T09:32:28.356Z,1.40
2022-09-14T09:33:30.599Z,1.38
2022-09-14T09:34:35.012Z,1.30
2022-09-14T09:35:36.692Z,1.08
2022-09-14T09:36:41.816Z,1.52
2022-09-14T09:37:43.488Z,1.10
2022-09-14T09:38:45.193Z,1.08
2022-09-14T09:39:47.229Z,1.25
2022-09-14T09:40:54.197Z,1.20
2022-09-14T09:42:08.111Z,1.10
2022-09-14T09:43:24.443Z,1.15
2022-09-14T09:45:04.089Z,1.77
2022-09-14T09:46:08.101Z,1.50
2022-09-14T09:47:09.883Z,1.20
2022-09-14T09:48:11.890Z,1.17
2022-09-14T09:49:23.781Z,1.30
2022-09-14T09:50:26.389Z,1.35
2022-09-14T09:51:31.062Z,1.30
2022-09-14T09:52:33.247Z,1.23
2022-09-14T09:53:38.807Z,1.20
2022-09-14T09:54:43.302Z,0.93
2022-09-14T09:55:49.517Z,1.33
2022-09-14T09:57:01.153Z,1.35
2022-09-14T09:58:33.600Z,1.25
2022-09-14T09:59:46.547Z,1.13
2022-09-14T10:01:11.620Z,1.10
2022-09-14T10:02:31.839Z,1.15
2022-09-14T10:03:38.859Z,1.30
2022-09-14T10:04:58.765Z,1.10
2022-09-14T10:06:07.403Z,1.05
2022-09-14T10:07:21.497Z,1.20
2022-09-14T10:08:23.201Z,1.27
2022-09-14T10:09:27.748Z,0.95
2022-09-14T10:10:35.396Z,1.10
2022-09-14T10:11:38.378Z,1.20
2022-09-14T10:12:47.325Z,1.35
2022-09-14T10:13:49.052Z,1.08
2022-09-14T10:15:02.988Z,1.15
2022-09-14T10:16:17.661Z,1.13
2022-09-14T10:17:21.451Z,1.40
2022-09-14T10:18:30.719Z,1.10
2022-09-14T10:19:33.577Z,1.30
2022-09-14T10:20:56.295Z,1.10
2022-09-14T10:22:05.035Z,1.08
2022-09-14T10:23:18.736Z,1.00
2022-09-14T10:24:21.254Z,1.20
2022-09-14T10:25:26.433Z,1.20
2022-09-14T10:26:33.575Z,1.20
2022-09-14T10:27:46.186Z,1.20
2022-09-14T10:28:49.949Z,1.20
2022-09-14T10:29:56.028Z,1.60
2022-09-14T10:31:12.862Z,1.17
2022-09-14T10:32:25.597Z,1.40
2022-09-14T10:33:27.614Z,1.08
2022-09-14T10:34:29.457Z,1.25
2022-09-14T10:35:57.745Z,1.25
2022-09-14T10:37:29.664Z,1.20
2022-09-14T10:38:32.153Z,1.00
2022-09-14T10:39:46.272Z,1.10
2022-09-14T10:40:58.064Z,1.30
2022-09-14T10:42:27.591Z,1.20
2022-09-14T10:44:10.878Z,1.10
2022-09-14T10:45:28.359Z,1.00
2022-09-14T10:46:36.384Z,1.20
2022-09-14T10:47:45.788Z,1.00
2022-09-14T10:48:53.704Z,1.20
2022-09-14T10:50:01.284Z,0.90
2022-09-14T10:51:21.220Z,1.10
2022-09-14T10:53:06.968Z,1.10
2022-09-14T10:54:27.219Z,1.20
2022-09-14T10:55:51.518Z,1.02
2022-09-14T10:57:13.215Z,1.10
2022-09-14T10:58:21.202Z,1.25
2022-09-14T10:59:51.034Z,1.20
2022-09-14T11:01:14.966Z,1.33
2022-09-14T11:02:22.390Z,1.20
2022-09-14T11:03:36.117Z,1.42
2022-09-14T11:04:58.662Z,1.05
2022-09-14T11:06:00.314Z,1.20
2022-09-14T11:07:16.815Z,1.20
2022-09-14T11:08:30.672Z,1.35
2022-09-14T11:09:38.602Z,1.27
2022-09-14T11:11:14.018Z,1.35
2022-09-14T11:12:31.429Z,1.30
2022-09-14T11:13:33.037Z,1.65
2022-09-14T11:14:51.776Z,1.25
2022-09-14T11:16:18.677Z,0.90
2022-09-14T11:17:46.744Z,1.30
2022-09-14T11:18:51.644Z,1.58
2022-09-14T11:20:32.181Z,1.30
2022-09-14T11:21:49.115Z,1.50
2022-09-14T11:23:16.214Z,1.50
2022-09-14T11:24:22.820Z,1.52
2022-09-14T11:25:47.076Z,1.50
2022-09-14T11:27:08.353Z,1.50
2022-09-14T11:28:25.733Z,1.42
2022-09-14T11:29:40.195Z,2.40
2022-09-14T11:31:28.735Z,1.40
2022-09-14T11:32:42.403Z,1.30
2022-09-14T11:34:01.549Z,1.40
2022-09-14T11:35:10.985Z,1.50
2022-09-14T11:36:22.012Z,1.35
2022-09-14T11:37:51.856Z,1.40
2022-09-14T11:39:04.678Z,1.10
2022-09-14T11:40:15.821Z,1.60
2022-09-14T11:41:20.597Z,1.25
2022-09-14T11:42:30.166Z,1.20
2022-09-14T11:43:47.144Z,1.40
2022-09-14T11:45:16.298Z,1.40
2022-09-14T11:46:24.632Z,1.35
2022-09-14T11:47:27.389Z,1.30
2022-09-14T11:48:43.213Z,1.40
2022-09-14T11:50:24.424Z,1.40
2022-09-14T11:51:42.083Z,1.00
2022-09-14T11:52:44.007Z,0.95
2022-09-14T11:53:46.686Z,1.15
2022-09-14T11:54:50.339Z,1.42
2022-09-14T11:55:52.394Z,1.15
2022-09-14T11:56:58.913Z,1.20
2022-09-14T11:58:04.087Z,1.67
2022-09-14T11:59:08.016Z,1.17
2022-09-14T12:00:33.492Z,1.45
2022-09-14T12:01:39.784Z,1.35
2022-09-14T12:02:49.295Z,1.33
2022-09-14T12:03:57.565Z,1.15
2022-09-14T12:05:05.158Z,1.17
2022-09-14T12:06:30.089Z,1.30
2022-09-14T12:07:46.705Z,1.17
2022-09-14T12:08:48.411Z,1.20
2022-09-14T12:09:51.628Z,0.90
2022-09-14T12:11:26.953Z,1.10
2022-09-14T12:12:31.374Z,1.30
2022-09-14T12:13:33.150Z,1.00
2022-09-14T12:14:36.752Z,1.27
2022-09-14T12:15:41.232Z,1.10
2022-09-14T12:17:37.857Z,1.20
2022-09-14T12:18:40.287Z,1.30
2022-09-14T12:19:43.593Z,1.10
2022-09-14T12:20:50.607Z,1.30
2022-09-14T12:21:52.291Z,1.20
2022-09-14T12:23:07.747Z,1.20
2022-09-14T12:24:15.201Z,1.33
2022-09-14T12:25:19.923Z,1.27
2022-09-14T12:26:21.607Z,1.27
2022-09-14T12:27:23.786Z,1.33
2022-09-14T12:28:40.236Z,1.50
2022-09-14T12:29:41.879Z,1.13
2022-09-14T12:30:43.979Z,1.08
2022-09-14T12:31:47.529Z,1.13
2022-09-14T12:32:49.361Z,1.50
2022-09-14T12:34:17.107Z,1.20
2022-09-14T12:35:40.453Z,1.27
2022-09-14T12:36:42.496Z,1.27
2022-09-14T12:37:44.204Z,1.52
2022-09-14T12:38:55.359Z,1.40
2022-09-14T12:40:34.495Z,1.65
2022-09-14T12:41:36.251Z,1.60
2022-09-14T12:42:37.983Z,1.50
2022-09-14T12:43:39.680Z,1.65
2022-09-14T12:44:43.433Z,1.42
2022-09-14T12:46:00.036Z,1.50
2022-09-14T12:47:25.091Z,1.73
2022-09-14T12:48:52.585Z,1.45
2022-09-14T12:50:04.631Z,1.50
2022-09-14T12:51:06.396Z,1.42
2022-09-14T12:52:19.892Z,1.50
2022-09-14T12:53:31.955Z,1.40
2022-09-14T12:54:57.038Z,1.50
2022-09-14T12:56:20.478Z,1.48
2022-09-14T12:57:28.536Z,1.40
2022-09-14T12:58:49.278Z,1.50
2022-09-14T13:00:14.617Z,1.38
2022-09-14T13:01:29.545Z,1.33
2022-09-14T13:02:34.069Z,1.30
2022-09-14T13:03:43.454Z,1.27
2022-09-14T13:04:48.044Z,1.75
2022-09-14T13:05:51.167Z,1.40
2022-09-14T13:06:55.599Z,1.45
2022-09-14T13:07:57.521Z,1.40
2022-09-14T13:08:59.958Z,1.13
2022-09-14T13:10:03.663Z,1.30
2022-09-14T13:11:06.869Z,1.48
2022-09-14T13:12:11.723Z,1.15
2022-09-14T13:13:26.033Z,1.17
2022-09-14T13:14:31.829Z,1.15
2022-09-14T13:15:38.201Z,1.10
2022-09-14T13:16:44.825Z,1.05
2022-09-14T13:18:07.347Z,2.50
2022-09-14T13:19:30.118Z,1.20
2022-09-14T13:20:34.791Z,1.10
2022-09-14T13:21:47.277Z,1.40
2022-09-14T13:22:49.248Z,1.38
2022-09-14T13:23:51.533Z,1.48
2022-09-14T13:24:53.872Z,1.33
2022-09-14T13:25:56.154Z,1.45
2022-09-14T13:27:01.085Z,1.40
2022-09-14T13:28:06.411Z,1.45
2022-09-14T13:29:08.382Z,1.40
2022-09-14T13:30:26.002Z,1.30
2022-09-14T13:31:35.707Z,1.17
2022-09-14T13:32:43.029Z,1.20
2022-09-14T13:33:50.730Z,1.30
2022-09-14T13:34:53.057Z,1.40
2022-09-14T13:35:58.130Z,1.45
2022-09-14T13:37:00.001Z,1.40
2022-09-14T13:38:09.058Z,1.48
2022-09-14T13:39:26.280Z,1.40
2022-09-14T13:40:30.169Z,1.30
2022-09-14T13:41:32.518Z,1.45
2022-09-14T13:42:34.782Z,1.35
2022-09-14T13:43:37.240Z,1.40
2022-09-14T13:44:50.371Z,1.40
2022-09-14T13:45:52.574Z,1.50
2022-09-14T13:46:57.844Z,1.63
2022-09-14T13:47:59.733Z,1.50
2022-09-14T13:49:01.497Z,1.70
2022-09-14T13:50:03.704Z,1.40
2022-09-14T13:51:06.300Z,1.40
2022-09-14T13:53:00.760Z,1.40
2022-09-14T13:54:18.506Z,1.40
2022-09-14T13:55:42.264Z,1.45
2022-09-14T13:56:44.014Z,1.20
2022-09-14T13:58:04.594Z,1.40
2022-09-14T13:59:12.171Z,1.70
2022-09-14T14:00:23.056Z,1.35
2022-09-14T14:02:33.109Z,1.30
2022-09-14T14:03:47.355Z,1.23
2022-09-14T14:04:49.033Z,1.70
2022-09-14T14:05:51.015Z,1.58
2022-09-14T14:07:06.399Z,1.50
2022-09-14T14:08:28.320Z,1.50
2022-09-14T14:09:50.932Z,1.30
2022-09-14T14:10:54.150Z,1.45
2022-09-14T14:11:56.466Z,1.40
2022-09-14T14:12:59.531Z,1.20
2022-09-14T14:14:21.613Z,1.55
2022-09-14T14:15:23.273Z,1.50
2022-09-14T14:16:29.049Z,1.80
2022-09-14T14:17:33.684Z,1.45
2022-09-14T14:18:35.319Z,1.60
2022-09-14T14:19:37.033Z,1.20
2022-09-14T14:20:39.321Z,1.30
2022-09-14T14:21:41.059Z,1.20
2022-09-14T14:22:59.593Z,1.02
2022-09-14T14:24:27.962Z,1.80
2022-09-14T14:25:45.762Z,1.30
2022-09-14T14:26:50.525Z,1.20
2022-09-14T14:27:59.990Z,1.90
2022-09-14T14:29:09.802Z,1.20
2022-09-14T14:30:22.024Z,1.38
2022-09-14T14:31:26.388Z,1.67
2022-09-14T14:32:29.376Z,1.25
2022-09-14T14:33:31.378Z,1.13
2022-09-14T14:34:33.040Z,1.15
2022-09-14T14:35:34.759Z,1.10
2022-09-14T14:36:36.385Z,1.30
2022-09-14T14:37:38.055Z,1.40
2022-09-14T14:38:40.918Z,1.30
2022-09-14T14:39:48.944Z,1.50
2022-09-14T14:40:55.237Z,1.60
2022-09-14T14:41:57.538Z,1.50
2022-09-14T14:43:03.026Z,1.17
2022-09-14T14:44:05.140Z,1.60
2022-09-14T14:45:07.675Z,1.20
2022-09-14T14:46:09.533Z,1.35
2022-09-14T14:47:13.705Z,1.48
2022-09-14T14:48:15.572Z,1.50
2022-09-14T14:49:20.528Z,1.63
2022-09-14T14:50:25.226Z,1.50
2022-09-14T14:51:26.878Z,1.33
2022-09-14T14:52:28.555Z,1.50
2022-09-14T14:53:30.207Z,1.60
2022-09-14T14:54:32.410Z,1.38
2022-09-14T14:55:36.015Z,1.50
2022-09-14T14:56:38.589Z,1.48